Time;durP1;ratioP1;P1;durP2;ratioP2;P2;SDS_P1;SDS_P2;PMS_P1;PMS_P2;Temp;Humidity;BMP_temperature;BMP_pressure;BME280_temperature;BME280_humidity;BME280_pressure;Samples;Min_cycle;Max_cycle;Signal;HPM_P1;HPM_P2
2021/05/14 00:02:22;;;;;;;7.00;1.77;;;;;;;;;;5094309;28;20279;-75
2021/05/14 00:04:48;;;;;;;5.50;1.80;;;;;;;;;;5093807;28;20285;-76
2021/05/14 00:07:16;;;;;;;6.87;1.93;;;;;;;;;;5093391;28;20224;-75
2021/05/14 00:09:43;;;;;;;3.90;1.80;;;;;;;;;;5093889;28;20225;-76
2021/05/14 00:12:09;;;;;;;7.43;2.03;;;;;;;;;;5093756;28;20604;-76
2021/05/14 00:14:36;;;;;;;8.83;2.00;;;;;;;;;;5094623;28;20206;-76
2021/05/14 00:17:04;;;;;;;8.43;2.10;;;;;;;;;;5093442;28;20233;-75
2021/05/14 00:19:30;;;;;;;6.03;2.00;;;;;;;;;;5094443;28;20380;-75
2021/05/14 00:21:57;;;;;;;5.13;1.80;;;;;;;;;;5093222;28;20255;-76
2021/05/14 00:24:24;;;;;;;5.83;1.90;;;;;;;;;;5092936;28;20274;-75
2021/05/14 00:26:50;;;;;;;5.70;2.10;;;;;;;;;;5094204;28;20308;-76
2021/05/14 00:29:17;;;;;;;4.73;1.80;;;;;;;;;;5094306;28;20218;-75
2021/05/14 00:31:44;;;;;;;6.90;1.60;;;;;;;;;;5094163;28;20333;-75
2021/05/14 00:34:11;;;;;;;8.10;1.60;;;;;;;;;;5093869;28;20254;-75
2021/05/14 00:36:38;;;;;;;8.33;1.90;;;;;;;;;;5093836;28;20288;-75
2021/05/14 00:39:04;;;;;;;6.23;1.77;;;;;;;;;;5093713;28;20352;-76
2021/05/14 00:41:31;;;;;;;5.47;2.00;;;;;;;;;;5093941;28;20734;-75
2021/05/14 00:43:58;;;;;;;3.83;1.47;;;;;;;;;;5094014;28;20299;-75
2021/05/14 00:46:25;;;;;;;5.30;1.90;;;;;;;;;;5093484;28;20300;-76
2021/05/14 00:48:51;;;;;;;6.47;1.97;;;;;;;;;;5093132;28;20264;-76
2021/05/14 00:51:19;;;;;;;5.00;1.80;;;;;;;;;;5092387;28;20249;-75
2021/05/14 00:53:46;;;;;;;5.27;1.70;;;;;;;;;;5093041;28;20285;-76
2021/05/14 00:56:13;;;;;;;7.00;2.00;;;;;;;;;;5093056;28;20221;-76
2021/05/14 00:58:39;;;;;;;6.53;1.73;;;;;;;;;;5093674;28;20364;-75
2021/05/14 01:01:06;;;;;;;5.07;1.73;;;;;;;;;;5093649;28;20230;-75
2021/05/14 01:03:33;;;;;;;8.93;2.40;;;;;;;;;;5093501;28;20281;-75
2021/05/14 01:05:59;;;;;;;8.47;1.97;;;;;;;;;;5093218;28;20202;-75
2021/05/14 01:08:27;;;;;;;8.93;2.17;;;;;;;;;;5086235;28;20256;-75
2021/05/14 01:10:54;;;;;;;6.37;1.73;;;;;;;;;;5091341;28;20268;-75
2021/05/14 01:13:25;;;;;;;8.20;2.33;;;;;;;;;;5093444;28;20342;-75
2021/05/14 01:15:51;;;;;;;5.43;2.10;;;;;;;;;;5093905;28;20209;-75
2021/05/14 01:18:18;;;;;;;8.73;2.30;;;;;;;;;;5092670;28;20246;-74
2021/05/14 01:20:46;;;;;;;7.93;2.43;;;;;;;;;;5092028;28;20237;-75
2021/05/14 01:23:13;;;;;;;5.23;2.10;;;;;;;;;;5092853;28;20318;-75
2021/05/14 01:25:40;;;;;;;7.80;2.10;;;;;;;;;;5092754;28;20284;-75
2021/05/14 01:28:07;;;;;;;9.70;2.17;;;;;;;;;;5092769;28;20253;-75
2021/05/14 01:30:34;;;;;;;6.53;2.27;;;;;;;;;;5092371;28;20205;-75
2021/05/14 01:33:00;;;;;;;8.73;2.57;;;;;;;;;;5092793;28;20293;-75
2021/05/14 01:35:27;;;;;;;7.57;2.80;;;;;;;;;;5091863;28;20281;-75
2021/05/14 01:37:54;;;;;;;6.70;2.37;;;;;;;;;;5092362;28;20209;-75
2021/05/14 01:40:21;;;;;;;5.37;2.20;;;;;;;;;;5092444;28;20335;-75
2021/05/14 01:42:48;;;;;;;4.80;2.13;;;;;;;;;;5092974;28;20197;-75
2021/05/14 01:45:15;;;;;;;8.73;2.57;;;;;;;;;;5093015;28;20629;-76
2021/05/14 01:47:41;;;;;;;5.93;2.10;;;;;;;;;;5091888;28;20213;-75
2021/05/14 01:50:09;;;;;;;7.30;2.50;;;;;;;;;;5091953;28;20290;-75
2021/05/14 01:52:36;;;;;;;6.87;2.50;;;;;;;;;;5091788;28;20750;-75
2021/05/14 01:55:04;;;;;;;13.57;2.70;;;;;;;;;;5092421;28;20268;-75
2021/05/14 01:57:31;;;;;;;8.93;2.77;;;;;;;;;;5092111;28;20202;-76
2021/05/14 01:59:58;;;;;;;6.50;2.60;;;;;;;;;;5092596;28;20222;-75
2021/05/14 02:02:24;;;;;;;7.90;2.47;;;;;;;;;;5091848;28;20217;-76
2021/05/14 02:04:51;;;;;;;7.07;2.20;;;;;;;;;;5091772;28;20682;-75
2021/05/14 02:07:18;;;;;;;10.00;2.57;;;;;;;;;;5075806;28;20242;-75
2021/05/14 02:09:44;;;;;;;7.93;2.30;;;;;;;;;;5076024;28;20263;-75
2021/05/14 02:12:12;;;;;;;6.97;2.23;;;;;;;;;;5091900;28;20568;-76
2021/05/14 02:14:39;;;;;;;7.07;2.30;;;;;;;;;;5091364;28;20280;-75
2021/05/14 02:17:06;;;;;;;7.97;2.57;;;;;;;;;;5091616;28;20312;-75
2021/05/14 02:19:32;;;;;;;8.10;2.50;;;;;;;;;;5091563;28;20198;-75
2021/05/14 02:21:59;;;;;;;5.77;2.30;;;;;;;;;;5091957;28;20248;-75
2021/05/14 02:24:26;;;;;;;8.07;2.33;;;;;;;;;;5092151;28;20264;-75
2021/05/14 02:26:52;;;;;;;9.10;2.60;;;;;;;;;;5090949;28;20756;-75
2021/05/14 02:29:20;;;;;;;5.97;2.13;;;;;;;;;;5090594;28;20260;-75
2021/05/14 02:31:47;;;;;;;5.87;2.27;;;;;;;;;;5091185;28;20202;-75
2021/05/14 02:34:14;;;;;;;7.10;2.40;;;;;;;;;;5091446;28;20355;-75
2021/05/14 02:36:40;;;;;;;7.73;2.63;;;;;;;;;;5092168;28;20240;-75
2021/05/14 02:39:08;;;;;;;8.23;2.67;;;;;;;;;;5091337;28;20221;-75
2021/05/14 02:41:34;;;;;;;8.23;2.67;;;;;;;;;;5091625;28;20635;-76
2021/05/14 02:44:01;;;;;;;6.43;2.50;;;;;;;;;;5091603;28;20226;-75
2021/05/14 02:46:29;;;;;;;11.27;2.87;;;;;;;;;;5091656;28;20677;-75
2021/05/14 02:48:56;;;;;;;8.37;2.70;;;;;;;;;;5090632;28;20313;-76
2021/05/14 02:51:22;;;;;;;5.30;2.60;;;;;;;;;;5091244;28;20305;-76
2021/05/14 02:53:49;;;;;;;9.63;2.70;;;;;;;;;;5091734;28;20210;-75
2021/05/14 02:56:16;;;;;;;8.07;2.53;;;;;;;;;;5091690;28;20285;-75
2021/05/14 02:58:43;;;;;;;7.40;3.00;;;;;;;;;;5091688;28;20661;-76
2021/05/14 03:01:09;;;;;;;9.43;2.77;;;;;;;;;;5090984;28;20699;-75
2021/05/14 03:03:37;;;;;;;7.70;2.97;;;;;;;;;;5091657;28;20301;-75
2021/05/14 03:06:04;;;;;;;11.03;2.93;;;;;;;;;;5091086;28;20752;-75
2021/05/14 03:08:30;;;;;;;7.70;3.00;;;;;;;;;;5091699;28;20265;-75
2021/05/14 03:10:57;;;;;;;6.57;3.10;;;;;;;;;;5090958;28;20391;-76
2021/05/14 03:13:24;;;;;;;9.40;3.27;;;;;;;;;;5091400;28;20292;-76
2021/05/14 03:15:51;;;;;;;7.20;2.93;;;;;;;;;;5090955;28;20237;-76
2021/05/14 03:18:17;;;;;;;7.10;2.90;;;;;;;;;;5091133;28;20281;-76
2021/05/14 03:20:45;;;;;;;7.37;3.00;;;;;;;;;;5091052;28;20331;-74
2021/05/14 03:23:11;;;;;;;7.53;3.50;;;;;;;;;;5090685;28;20272;-75
2021/05/14 03:25:38;;;;;;;7.63;3.20;;;;;;;;;;5090993;28;20241;-75
2021/05/14 03:28:05;;;;;;;5.10;3.37;;;;;;;;;;5090950;28;20285;-75
2021/05/14 03:30:32;;;;;;;8.30;3.33;;;;;;;;;;5090354;28;20694;-75
2021/05/14 03:32:59;;;;;;;7.07;3.27;;;;;;;;;;5091009;28;20237;-75
2021/05/14 03:35:26;;;;;;;7.23;3.00;;;;;;;;;;5090126;28;20384;-75
2021/05/14 03:37:53;;;;;;;7.43;3.30;;;;;;;;;;5091102;28;20202;-76
2021/05/14 03:40:32;;;;;;;7.13;3.40;;;;;;;;;;5091082;28;20282;-75
2021/05/14 03:42:59;;;;;;;5.87;3.73;;;;;;;;;;5091183;28;20336;-75
2021/05/14 03:45:26;;;;;;;9.07;3.47;;;;;;;;;;5090385;28;20205;-75
2021/05/14 03:47:54;;;;;;;6.03;3.60;;;;;;;;;;5091259;28;20286;-74
2021/05/14 03:50:21;;;;;;;10.87;3.53;;;;;;;;;;5090224;28;20292;-74
2021/05/14 03:52:48;;;;;;;6.70;4.20;;;;;;;;;;5084785;28;20701;-75
2021/05/14 03:55:17;;;;;;;6.10;3.67;;;;;;;;;;5090814;28;20193;-76
2021/05/14 03:57:43;;;;;;;8.30;3.80;;;;;;;;;;5090973;28;20725;-75
2021/05/14 04:00:11;;;;;;;11.20;4.40;;;;;;;;;;5092483;28;20284;-75
2021/05/14 04:02:37;;;;;;;7.77;4.10;;;;;;;;;;5094724;28;20288;-75
2021/05/14 04:05:04;;;;;;;8.87;3.80;;;;;;;;;;5094498;28;20226;-75
2021/05/14 04:07:31;;;;;;;7.83;3.80;;;;;;;;;;5094531;28;20288;-75
2021/05/14 04:10:05;;;;;;;7.63;3.87;;;;;;;;;;5094772;28;20573;-75
2021/05/14 04:15:22;;;;;;;7.77;3.90;;;;;;;;;;5094293;28;20208;-75
2021/05/14 04:17:48;;;;;;;5.97;3.63;;;;;;;;;;5094060;28;20205;-75
2021/05/14 04:20:15;;;;;;;10.00;4.17;;;;;;;;;;5093800;28;20286;-75
2021/05/14 04:22:42;;;;;;;10.07;4.80;;;;;;;;;;5093909;28;20237;-75
2021/05/14 04:25:09;;;;;;;6.33;3.97;;;;;;;;;;5094211;28;20292;-75
2021/05/14 04:27:36;;;;;;;10.00;4.70;;;;;;;;;;5093969;28;20265;-75
2021/05/14 04:30:04;;;;;;;6.17;4.20;;;;;;;;;;5093713;28;20313;-75
2021/05/14 04:32:30;;;;;;;8.27;4.70;;;;;;;;;;5094404;28;20307;-75
2021/05/14 04:34:57;;;;;;;9.17;4.30;;;;;;;;;;5093821;28;20329;-74
2021/05/14 04:37:24;;;;;;;6.77;4.40;;;;;;;;;;5094334;28;20212;-75
2021/05/14 04:39:51;;;;;;;7.03;4.33;;;;;;;;;;5093799;28;20198;-75
2021/05/14 04:42:17;;;;;;;7.77;4.73;;;;;;;;;;5093756;28;20733;-76
2021/05/14 04:44:45;;;;;;;6.37;4.43;;;;;;;;;;5093001;28;20286;-75
2021/05/14 04:47:12;;;;;;;7.73;4.63;;;;;;;;;;5094170;28;20198;-75
2021/05/14 04:49:38;;;;;;;9.40;4.40;;;;;;;;;;5092886;28;20261;-75
2021/05/14 04:52:16;;;;;;;5.13;4.17;;;;;;;;;;5093156;28;20635;-75
2021/05/14 04:54:43;;;;;;;7.93;4.13;;;;;;;;;;5093449;28;20199;-76
2021/05/14 04:57:10;;;;;;;9.30;4.40;;;;;;;;;;5092925;28;20552;-74
2021/05/14 04:59:37;;;;;;;6.77;4.07;;;;;;;;;;5093897;28;20201;-75
2021/05/14 05:02:07;;;;;;;10.43;4.87;;;;;;;;;;5092796;28;20289;-75
2021/05/14 05:04:34;;;;;;;6.80;4.40;;;;;;;;;;5093386;28;20573;-76
2021/05/14 05:07:01;;;;;;;10.23;4.73;;;;;;;;;;5093202;28;20296;-75
2021/05/14 05:09:27;;;;;;;8.07;4.60;;;;;;;;;;5093423;28;20316;-75
2021/05/14 05:11:54;;;;;;;8.13;4.30;;;;;;;;;;5092554;28;20670;-75
2021/05/14 05:14:21;;;;;;;7.53;4.77;;;;;;;;;;5093231;28;20292;-75
2021/05/14 05:16:47;;;;;;;7.33;4.50;;;;;;;;;;5093401;28;20292;-75
2021/05/14 05:19:15;;;;;;;8.10;4.47;;;;;;;;;;5091880;28;20201;-75
2021/05/14 05:21:42;;;;;;;7.77;4.60;;;;;;;;;;5092242;28;20237;-75
2021/05/14 05:24:09;;;;;;;7.80;4.60;;;;;;;;;;5093255;28;20621;-76
2021/05/14 05:26:36;;;;;;;7.00;4.30;;;;;;;;;;5093110;28;20224;-76
2021/05/14 05:29:03;;;;;;;7.63;4.40;;;;;;;;;;5092259;28;20279;-75
2021/05/14 05:31:29;;;;;;;7.13;4.33;;;;;;;;;;5092619;28;20566;-76
2021/05/14 05:33:56;;;;;;;7.00;4.23;;;;;;;;;;5092554;28;20662;-76
2021/05/14 05:36:24;;;;;;;5.33;3.90;;;;;;;;;;5092035;28;20251;-75
2021/05/14 05:38:50;;;;;;;5.27;4.23;;;;;;;;;;5092211;28;20669;-75
2021/05/14 05:41:17;;;;;;;6.40;4.20;;;;;;;;;;5091751;28;20206;-76
2021/05/14 05:43:44;;;;;;;6.13;4.30;;;;;;;;;;5091964;28;20202;-75
2021/05/14 05:46:11;;;;;;;6.57;4.37;;;;;;;;;;5092120;28;20727;-75
2021/05/14 05:48:38;;;;;;;5.13;4.30;;;;;;;;;;5092568;28;20271;-75
2021/05/14 05:51:06;;;;;;;6.13;3.90;;;;;;;;;;5091344;28;20600;-75
2021/05/14 05:53:34;;;;;;;7.33;4.27;;;;;;;;;;5092000;28;20230;-75
2021/05/14 05:56:00;;;;;;;6.87;4.23;;;;;;;;;;5091638;28;20277;-75
2021/05/14 05:58:27;;;;;;;6.30;4.10;;;;;;;;;;5090902;28;20286;-75
2021/05/14 06:00:54;;;;;;;5.30;3.80;;;;;;;;;;5091798;28;20717;-75
2021/05/14 06:03:20;;;;;;;7.20;4.10;;;;;;;;;;5092020;28;20228;-76
2021/05/14 06:05:47;;;;;;;5.33;4.07;;;;;;;;;;5092041;28;20313;-76
2021/05/14 06:08:14;;;;;;;5.73;3.63;;;;;;;;;;5091748;28;20230;-75
2021/05/14 06:10:42;;;;;;;7.97;3.90;;;;;;;;;;5092362;28;20194;-75
2021/05/14 06:13:09;;;;;;;5.27;4.10;;;;;;;;;;5091913;28;20202;-75
2021/05/14 06:15:36;;;;;;;3.90;3.30;;;;;;;;;;5090775;28;20642;-75
2021/05/14 06:18:02;;;;;;;5.17;3.63;;;;;;;;;;5092359;28;20669;-75
2021/05/14 06:20:31;;;;;;;5.03;3.33;;;;;;;;;;5091790;28;20285;-75
2021/05/14 06:22:58;;;;;;;4.20;3.40;;;;;;;;;;5091301;28;20724;-75
2021/05/14 06:25:25;;;;;;;4.27;3.70;;;;;;;;;;5091260;28;20680;-75
2021/05/14 06:27:52;;;;;;;4.53;3.60;;;;;;;;;;5080026;28;20717;-75
2021/05/14 06:30:20;;;;;;;4.30;3.47;;;;;;;;;;5089880;28;20333;-75
2021/05/14 06:32:46;;;;;;;5.50;3.73;;;;;;;;;;5090841;28;20252;-76
2021/05/14 06:35:13;;;;;;;5.50;4.00;;;;;;;;;;5090873;28;20202;-75
2021/05/14 06:37:40;;;;;;;5.23;3.73;;;;;;;;;;5090436;28;20617;-75
2021/05/14 06:40:08;;;;;;;4.83;4.10;;;;;;;;;;5090209;28;20313;-75
2021/05/14 06:42:34;;;;;;;6.00;4.10;;;;;;;;;;5085344;28;20752;-76
2021/05/14 06:45:02;;;;;;;6.10;4.23;;;;;;;;;;5084887;28;20300;-75
2021/05/14 06:47:29;;;;;;;4.23;3.60;;;;;;;;;;5088959;28;20285;-75
2021/05/14 06:49:56;;;;;;;6.93;4.80;;;;;;;;;;5084838;28;20647;-76
2021/05/14 06:52:23;;;;;;;6.13;3.40;;;;;;;;;;5085837;28;20214;-75
2021/05/14 06:54:50;;;;;;;4.87;4.33;;;;;;;;;;5090031;28;20213;-76
2021/05/14 06:57:17;;;;;;;6.10;4.07;;;;;;;;;;5086720;28;20291;-75
2021/05/14 06:59:44;;;;;;;5.13;4.33;;;;;;;;;;5088623;28;20285;-75
2021/05/14 07:02:11;;;;;;;5.40;3.90;;;;;;;;;;5089534;28;20278;-75
2021/05/14 07:04:38;;;;;;;4.47;3.43;;;;;;;;;;5088336;28;20194;-76
2021/05/14 07:07:05;;;;;;;4.23;3.30;;;;;;;;;;5085469;28;20249;-76
2021/05/14 07:09:31;;;;;;;4.20;3.20;;;;;;;;;;5089196;28;20303;-75
2021/05/14 07:11:58;;;;;;;4.20;2.90;;;;;;;;;;5094607;28;20289;-75
2021/05/14 07:14:25;;;;;;;5.13;2.77;;;;;;;;;;5095590;28;20285;-75
2021/05/14 07:16:52;;;;;;;3.37;2.60;;;;;;;;;;5089817;28;20282;-76
2021/05/14 07:19:19;;;;;;;7.38;2.80;;;;;;;;;;5087477;28;20281;-76
2021/05/14 07:21:46;;;;;;;5.15;2.42;;;;;;;;;;5090797;28;20762;-76
2021/05/14 07:24:13;;;;;;;3.55;2.30;;;;;;;;;;5090698;28;20229;-76
2021/05/14 07:26:40;;;;;;;4.38;2.42;;;;;;;;;;5091287;28;20309;-74
2021/05/14 07:29:07;;;;;;;4.95;2.63;;;;;;;;;;5091110;28;20218;-75
2021/05/14 07:31:33;;;;;;;5.70;2.70;;;;;;;;;;5090516;28;20298;-76
2021/05/14 07:34:00;;;;;;;6.00;3.37;;;;;;;;;;5091195;28;20748;-77
2021/05/14 07:36:28;;;;;;;7.23;3.20;;;;;;;;;;5095085;28;20198;-76
2021/05/14 07:38:55;;;;;;;7.87;3.70;;;;;;;;;;5094605;28;20232;-75
2021/05/14 07:41:22;;;;;;;4.60;3.00;;;;;;;;;;5094367;28;20289;-76
2021/05/14 07:43:48;;;;;;;6.60;3.30;;;;;;;;;;5094662;28;20293;-76
2021/05/14 07:46:16;;;;;;;7.17;3.53;;;;;;;;;;5093940;28;20281;-75
2021/05/14 07:48:43;;;;;;;5.40;4.00;;;;;;;;;;5094738;28;20305;-75
2021/05/14 07:51:10;;;;;;;7.07;3.90;;;;;;;;;;5094059;28;20696;-75
2021/05/14 07:53:37;;;;;;;6.53;4.00;;;;;;;;;;5093968;28;20263;-76
2021/05/14 07:56:04;;;;;;;8.97;4.10;;;;;;;;;;5094319;28;20290;-75
2021/05/14 07:58:31;;;;;;;6.20;4.03;;;;;;;;;;5094540;28;20209;-75
2021/05/14 08:00:58;;;;;;;6.97;4.13;;;;;;;;;;5093976;28;20281;-75
2021/05/14 08:03:24;;;;;;;7.20;4.07;;;;;;;;;;5094296;28;20277;-76
2021/05/14 08:05:51;;;;;;;5.57;4.13;;;;;;;;;;5093995;28;20293;-76
2021/05/14 08:08:19;;;;;;;4.93;3.60;;;;;;;;;;5093952;28;20289;-75
2021/05/14 08:10:47;;;;;;;7.10;3.50;;;;;;;;;;5093732;28;20199;-75
2021/05/14 08:13:15;;;;;;;4.87;3.77;;;;;;;;;;5093362;28;20205;-76
2021/05/14 08:15:43;;;;;;;6.17;3.83;;;;;;;;;;5093022;28;20202;-77
2021/05/14 08:18:10;;;;;;;6.47;3.90;;;;;;;;;;5093788;28;20555;-77
2021/05/14 08:20:39;;;;;;;8.53;4.57;;;;;;;;;;5093855;28;20273;-77
2021/05/14 08:23:07;;;;;;;7.07;4.50;;;;;;;;;;5093899;28;20234;-77
2021/05/14 08:25:35;;;;;;;7.03;4.87;;;;;;;;;;5093159;28;20558;-77
2021/05/14 08:28:02;;;;;;;8.47;5.03;;;;;;;;;;5093632;28;20282;-75
2021/05/14 08:30:29;;;;;;;6.57;4.73;;;;;;;;;;5092847;28;20333;-76
2021/05/14 08:32:56;;;;;;;8.33;4.83;;;;;;;;;;5085262;28;20286;-76
2021/05/14 08:35:22;;;;;;;5.60;3.97;;;;;;;;;;5093185;28;20213;-76
2021/05/14 08:37:49;;;;;;;5.47;3.27;;;;;;;;;;5093572;28;20340;-76
2021/05/14 08:40:16;;;;;;;5.63;3.10;;;;;;;;;;5093141;28;20273;-76
2021/05/14 08:42:44;;;;;;;5.40;3.23;;;;;;;;;;5093454;28;20289;-76
2021/05/14 08:45:12;;;;;;;8.23;3.70;;;;;;;;;;5093243;28;20199;-76
2021/05/14 08:47:40;;;;;;;5.90;3.33;;;;;;;;;;5093547;28;20202;-76
2021/05/14 08:50:08;;;;;;;5.03;3.20;;;;;;;;;;5093670;28;20230;-76
2021/05/14 08:52:35;;;;;;;6.00;2.70;;;;;;;;;;5093802;28;20293;-77
2021/05/14 08:55:02;;;;;;;2.13;1.60;;;;;;;;;;5093316;28;20233;-77
2021/05/14 08:57:29;;;;;;;2.87;1.17;;;;;;;;;;5092563;28;20281;-76
2021/05/14 08:59:56;;;;;;;1.20;0.80;;;;;;;;;;5095058;28;20203;-76
2021/05/14 09:02:23;;;;;;;1.37;0.80;;;;;;;;;;5092119;28;20289;-76
2021/05/14 09:04:50;;;;;;;1.40;0.90;;;;;;;;;;5091979;28;20301;-76
2021/05/14 09:07:18;;;;;;;1.73;1.00;;;;;;;;;;5093701;28;20226;-76
2021/05/14 09:10:06;;;;;;;1.57;1.20;;;;;;;;;;5128181;27;20551;-76
2021/05/14 09:12:33;;;;;;;2.70;1.00;;;;;;;;;;5131424;27;20197;-75
2021/05/14 09:15:00;;;;;;;2.47;1.10;;;;;;;;;;5133825;27;20189;-75
2021/05/14 09:17:27;;;;;;;1.43;1.00;;;;;;;;;;5129222;27;20284;-74
2021/05/14 09:19:54;;;;;;;2.37;1.20;;;;;;;;;;5128345;27;20609;-76
2021/05/14 09:22:21;;;;;;;2.60;1.50;;;;;;;;;;5128994;27;20193;-75
2021/05/14 09:24:49;;;;;;;1.83;1.13;;;;;;;;;;5128711;27;20717;-74
2021/05/14 09:27:27;;;;;;;2.80;1.50;;;;;;;;;;5111889;27;20213;-75
2021/05/14 09:29:55;;;;;;;3.43;1.30;;;;;;;;;;5108593;28;20217;-75
2021/05/14 09:32:22;;;;;;;3.00;1.40;;;;;;;;;;5108431;28;20197;-75
2021/05/14 09:34:49;;;;;;;2.60;1.40;;;;;;;;;;5109048;28;20202;-75
2021/05/14 09:37:16;;;;;;;1.80;1.50;;;;;;;;;;5107930;28;20216;-74
2021/05/14 09:39:44;;;;;;;2.53;1.30;;;;;;;;;;5108806;28;20208;-74
2021/05/14 09:42:10;;;;;;;2.50;1.40;;;;;;;;;;5108686;28;20225;-74
2021/05/14 09:44:38;;;;;;;1.80;1.20;;;;;;;;;;5108845;28;20282;-75
2021/05/14 09:47:05;;;;;;;2.27;1.20;;;;;;;;;;5108332;28;20229;-75
2021/05/14 09:49:33;;;;;;;2.03;1.20;;;;;;;;;;5109071;28;20257;-75
2021/05/14 09:52:02;;;;;;;2.77;1.30;;;;;;;;;;5108940;28;20236;-76
2021/05/14 09:54:30;;;;;;;2.37;1.63;;;;;;;;;;5108663;28;20202;-73
2021/05/14 09:57:31;;;;;;;2.97;1.70;;;;;;;;;;5108028;28;20289;-73
2021/05/14 09:59:59;;;;;;;3.00;2.03;;;;;;;;;;5098153;28;20256;-76
2021/05/14 10:02:27;;;;;;;3.30;2.30;;;;;;;;;;5107050;28;20194;-76
2021/05/14 10:04:54;;;;;;;3.23;2.40;;;;;;;;;;5108067;28;20205;-76
2021/05/14 10:07:21;;;;;;;4.00;2.57;;;;;;;;;;5099912;28;20285;-75
2021/05/14 10:09:51;;;;;;;3.00;2.10;;;;;;;;;;5101266;28;20326;-74
2021/05/14 10:12:19;;;;;;;5.40;2.50;;;14.50;99.90;;;;;;5098676;28;20819;-75
2021/05/14 10:14:45;;;;;;;2.73;2.20;;;14.80;99.90;;;;;;5088191;28;20195;-76
2021/05/14 10:17:13;;;;;;;3.40;1.97;;;15.60;99.90;;;;;;5103496;28;20229;-75
2021/05/14 10:19:41;;;;;;;5.80;2.10;;;16.20;99.90;;;;;;5091892;28;20279;-74
2021/05/14 10:22:08;;;;;;;2.93;2.00;;;16.70;99.90;;;;;;5090325;28;20289;-75
2021/05/14 10:24:38;;;;;;;2.27;1.60;;;17.40;99.90;;;;;;5095788;28;20278;-75
2021/05/14 10:27:14;;;;;;;3.00;1.87;;;17.00;99.90;;;;;;5095915;28;20693;-75
2021/05/14 10:29:44;;;;;;;2.67;1.47;;;16.50;99.90;;;;;;5094452;28;20296;-75
2021/05/14 10:32:10;;;;;;;5.67;1.90;;;15.80;99.90;;;;;;5097695;28;20371;-75
2021/05/14 10:34:38;;;;;;;3.47;1.70;;;14.80;99.90;;;;;;5092544;28;20279;-75
2021/05/14 10:37:05;;;;;;;2.63;1.80;;;14.10;99.90;;;;;;5092539;28;20647;-75
2021/05/14 10:39:36;;;;;;;3.40;1.73;;;13.90;99.90;;;;;;5093714;28;20260;-74
2021/05/14 10:42:06;;;;;;;2.27;1.70;;;14.20;99.90;;;;;;5092924;28;20205;-75
2021/05/14 10:44:51;;;;;;;2.30;1.60;;;14.50;99.90;;;;;;5094494;28;20199;-75
2021/05/14 10:47:48;;;;;;;2.30;1.43;;;14.70;99.90;;;;;;5093141;28;20670;-74
2021/05/14 10:50:38;;;;;;;2.07;1.30;;;14.30;99.90;;;;;;5082842;28;20213;-74
2021/05/14 10:53:31;;;;;;;2.13;1.50;;;14.30;99.90;;;;;;5094018;28;20202;-74
2021/05/14 10:56:27;;;;;;;2.97;1.33;;;13.60;99.90;;;;;;5081378;28;20202;-74
2021/05/14 10:59:07;;;;;;;2.77;1.43;;;13.50;99.90;;;;;;5088312;28;20203;-75
2021/05/14 11:01:35;;;;;;;2.67;1.63;;;13.30;99.90;;;;;;5091941;28;20198;-75
2021/05/14 11:04:03;;;;;;;4.00;1.43;;;13.20;99.90;;;;;;5093490;28;20210;-75
2021/05/14 11:06:41;;;;;;;2.83;1.40;;;13.20;99.90;;;;;;5093066;28;20221;-75
2021/05/14 11:09:09;;;;;;;3.10;1.40;;;13.70;99.90;;;;;;5092748;28;20317;-75
2021/05/14 11:11:46;;;;;;;2.37;1.60;;;14.40;99.90;;;;;;5093125;28;20658;-75
2021/05/14 11:14:16;;;;;;;2.53;1.43;;;15.00;99.90;;;;;;5092328;28;20237;-74
2021/05/14 11:16:44;;;;;;;3.07;1.27;;;14.90;99.90;;;;;;5093047;28;20285;-74
2021/05/14 11:19:13;;;;;;;3.50;1.20;;;14.90;99.90;;;;;;5092800;28;20190;-74
2021/05/14 11:22:05;;;;;;;3.23;1.40;;;14.70;99.90;;;;;;5093461;28;20282;-74
2021/05/14 11:24:33;;;;;;;4.17;2.00;;;14.60;99.90;;;;;;5093540;28;20198;-74
2021/05/14 11:27:02;;;;;;;4.93;1.67;;;14.60;99.90;;;;;;5091658;28;20655;-75
2021/05/14 11:29:34;;;;;;;3.30;1.53;;;14.80;99.90;;;;;;5092460;28;20320;-74
2021/05/14 11:32:33;;;;;;;5.70;1.80;;;15.10;99.90;;;;;;5089272;28;20956;-74
2021/05/14 11:35:07;;;;;;;3.60;1.70;;;15.60;99.90;;;;;;5099880;28;20904;-74
2021/05/14 11:37:37;;;;;;;3.57;1.50;;;15.40;99.90;;;;;;5096231;28;20201;-75
2021/05/14 11:40:14;;;;;;;4.50;1.77;;;15.50;99.90;;;;;;5101234;28;20277;-74
2021/05/14 11:42:44;;;;;;;4.87;1.70;;;15.40;99.90;;;;;;5084173;28;20213;-75
2021/05/14 11:45:14;;;;;;;3.70;1.93;;;15.80;99.90;;;;;;5086981;28;20272;-75
2021/05/14 11:47:48;;;;;;;5.50;1.80;;;15.90;99.90;;;;;;5089213;28;20197;-75
2021/05/14 11:50:33;;;;;;;2.73;1.53;;;15.60;99.90;;;;;;5091985;28;20277;-74
2021/05/14 11:53:01;;;;;;;5.40;2.03;;;;;;;;;;5081937;28;20260;-75
2021/05/14 11:55:29;;;;;;;4.33;1.90;;;;;;;;;;5090872;28;20206;-75
2021/05/14 11:57:58;;;;;;;3.73;2.00;;;;;;;;;;5088328;28;20626;-74
2021/05/14 12:00:26;;;;;;;8.03;2.50;;;;;;;;;;5089704;28;20190;-75
2021/05/14 12:02:53;;;;;;;6.53;2.30;;;;;;;;;;5088169;28;20229;-75
2021/05/14 12:05:21;;;;;;;6.00;2.33;;;;;;;;;;5090643;28;20195;-75
2021/05/14 12:07:48;;;;;;;3.07;1.90;;;;;;;;;;5089796;28;20271;-75
2021/05/14 12:10:16;;;;;;;3.87;1.90;;;;;;;;;;5091283;28;20225;-74
2021/05/14 12:12:43;;;;;;;3.10;1.67;;;;;;;;;;5090199;28;20202;-75
2021/05/14 12:15:11;;;;;;;5.77;2.30;;;;;;;;;;5091537;28;20209;-74
2021/05/14 12:17:38;;;;;;;6.47;1.80;;;;;;;;;;5091400;28;20234;-74
2021/05/14 12:20:14;;;;;;;3.27;1.90;;;;;;;;;;5090328;28;20274;-75
2021/05/14 12:22:42;;;;;;;3.50;1.53;;;;;;;;;;5091083;28;20218;-75
2021/05/14 12:25:10;;;;;;;3.17;1.67;;;;;;;;;;5090745;28;20285;-75
2021/05/14 12:27:37;;;;;;;3.10;1.73;;;;;;;;;;5090532;28;20214;-75
2021/05/14 12:30:04;;;;;;;3.73;1.80;;;;;;;;;;5090532;28;20374;-74
2021/05/14 12:32:31;;;;;;;4.43;1.70;;;;;;;;;;5090612;28;20293;-75
2021/05/14 12:34:58;;;;;;;3.43;1.80;;;;;;;;;;5085916;28;20199;-75
2021/05/14 12:37:24;;;;;;;4.57;1.60;;;;;;;;;;5086602;28;20645;-75
2021/05/14 12:39:51;;;;;;;3.57;1.97;;;;;;;;;;5090368;28;20726;-74
2021/05/14 12:42:25;;;;;;;4.70;1.50;;;;;;;;;;5089824;28;20254;-75
2021/05/14 12:44:53;;;;;;;3.40;1.38;;;;;;;;;;5090919;28;20240;-75
2021/05/14 12:47:22;;;;;;;5.85;1.75;;;;;;;;;;5090215;28;20206;-75
2021/05/14 12:49:50;;;;;;;2.60;1.70;;;;;;;;;;5085983;28;20751;-75
2021/05/14 12:52:20;;;;;;;3.30;1.40;;;;;;;;;;5087527;28;20210;-75
2021/05/14 12:54:54;;;;;;;4.05;1.60;;;;;;;;;;5090474;28;20339;-75
2021/05/14 12:57:25;;;;;;;3.35;2.03;;;;;;;;;;5089052;28;20713;-75
2021/05/14 12:59:53;;;;;;;4.00;1.88;;;;;;;;;;5089770;28;20230;-75
2021/05/14 13:02:20;;;;;;;3.60;1.80;;;;;;;;;;5087292;28;20556;-75
2021/05/14 13:04:56;;;;;;;2.97;1.73;;;;;;;;;;5090354;28;20233;-75
2021/05/14 13:07:22;;;;;;;2.33;1.70;;;;;;;;;;5089530;28;20194;-75
2021/05/14 13:09:49;;;;;;;4.85;2.00;;;;;;;;;;5089187;28;20230;-75
2021/05/14 13:12:17;;;;;;;4.37;1.80;;;;;;;;;;5087045;28;20198;-75
2021/05/14 13:14:44;;;;;;;3.40;1.60;;;;;;;;;;5084575;28;20191;-75
2021/05/14 13:17:12;;;;;;;5.90;1.87;;;;;;;;;;5087703;28;20198;-74
2021/05/14 13:19:39;;;;;;;5.57;1.93;;;;;;;;;;5084711;28;20610;-74
2021/05/14 13:22:05;;;;;;;5.50;1.90;;;;;;;;;;5088649;28;20281;-75
2021/05/14 13:24:32;;;;;;;4.47;1.90;;;;;;;;;;5085465;28;20206;-75
2021/05/14 13:26:59;;;;;;;3.83;2.00;;;;;;;;;;5088730;28;20317;-75
2021/05/14 13:29:25;;;;;;;5.20;2.00;;;;;;;;;;5090151;28;20752;-75
2021/05/14 13:31:52;;;;;;;3.90;1.80;;;;;;;;;;5086686;28;20226;-75
2021/05/14 13:34:20;;;;;;;4.93;2.43;;;;;;;;;;5085952;28;20285;-74
2021/05/14 13:36:46;;;;;;;6.90;1.97;;;;;;;;;;5086196;28;20301;-75
2021/05/14 13:39:13;;;;;;;5.57;2.13;;;;;;;;;;5085526;28;20287;-75
2021/05/14 13:41:42;;;;;;;3.73;1.83;;;;;;;;;;5085877;28;20233;-74
2021/05/14 13:44:09;;;;;;;6.27;2.10;;;;;;;;;;5089753;28;20389;-74
2021/05/14 13:46:36;;;;;;;6.13;2.23;;;;;;;;;;5089166;28;20225;-75
2021/05/14 13:49:03;;;;;;;5.10;2.07;;;;;;;;;;5090344;28;20606;-75
2021/05/14 13:51:30;;;;;;;8.27;2.23;;;;;;;;;;5077148;28;20336;-75
2021/05/14 13:53:57;;;;;;;4.23;2.10;;;;;;;;;;5089755;28;20741;-74
2021/05/14 13:56:23;;;;;;;3.83;1.90;;;;;;;;;;5092219;28;20792;-75
2021/05/14 13:58:50;;;;;;;4.33;1.83;;;;;;;;;;5091880;28;20341;-75
2021/05/14 14:01:17;;;;;;;5.27;1.90;;;;;;;;;;5093114;28;20278;-75
2021/05/14 14:03:43;;;;;;;5.80;1.97;;;;;;;;;;5093581;28;20281;-74
2021/05/14 14:06:10;;;;;;;5.63;1.93;;;;;;;;;;5094752;28;20288;-75
2021/05/14 14:08:38;;;;;;;5.53;1.90;;;;;;;;;;5092925;28;20317;-75
2021/05/14 14:11:04;;;;;;;5.10;2.60;;;;;;;;;;5092900;28;20285;-74
2021/05/14 14:13:31;;;;;;;5.33;2.20;;;;;;;;;;5088818;28;20190;-75
2021/05/14 14:15:57;;;;;;;5.82;1.77;;;;;;;;;;5093161;28;20281;-75
2021/05/14 14:18:24;;;;;;;5.72;1.98;;;;;;;;;;5093737;28;20289;-75
2021/05/14 14:20:51;;;;;;;5.22;2.08;;;;;;;;;;5083809;28;20281;-75
2021/05/14 14:23:18;;;;;;;5.15;1.80;;;;;;;;;;5092249;28;20299;-76
2021/05/14 14:25:45;;;;;;;7.05;2.00;;;;;;;;;;5092942;28;20314;-76
2021/05/14 14:28:15;;;;;;;6.72;2.30;;;;;;;;;;5093696;28;20310;-75
2021/05/14 14:30:42;;;;;;;4.28;1.90;;;;;;;;;;5091932;28;20286;-75
2021/05/14 14:33:08;;;;;;;5.72;1.60;;;;;;;;;;5091416;28;20226;-76
2021/05/14 14:35:35;;;;;;;6.60;1.90;;;;;;;;;;5089872;28;20198;-75
2021/05/14 14:38:02;;;;;;;3.78;1.85;;;;;;;;;;5092240;28;20238;-75